Dog Valley, California Weather observations

Data are for 10 minute period ending at time listed.
 Day   Time    Ave.   Ave.  Ave.  Vector   Max.   Total    Solar   
  of    of     Air    Rel.  Wind   Wind    Wind  Precip.   Rad.    
Year   Day     Temp.  Hum.  Speed  Dir.    Gust                    
2016   (PST)    F      %     mph   deg.    mph     in.     W/m2    
------------------------------------------------------------------- 
 338   18:00   28.0    67    0.0   274      1.0   13.90       0  
 338   19:00   26.0    72    0.0   273      0.0   13.90       0  
 338   20:00   24.0    66    0.0   288      0.0   13.90       0  
 338   21:00   24.0    61    0.0   288      1.0   13.90       0  
 338   22:00   24.0    66    0.0   245      1.0   13.90       0  
 338   23:00   24.0    66    0.0   224      1.0   13.90       0  
 339    0:00   23.0    72    0.0   296      1.0   13.90       0  
 339    1:00   25.0    76    0.0   343      2.0   13.90       0  
 339    2:00   29.0    68    0.0   332      2.0   13.90       0  
 339    3:00   33.0    61    2.0   296      7.0   13.90       0  
 339    4:00   32.0    61    1.0   287      6.0   13.90       0  
 339    5:00   28.0    71    1.0   308      4.0   13.90       0  
 339    6:00   28.0    72    1.0   305      4.0   13.90       0  
 339    7:00   29.0    70    0.0    82      4.0   13.90       0  
 339    8:00   30.0    69    0.0   325      3.0   13.90      11  
 339    9:00   43.0    45    1.0   241      7.0   13.90      56  
 339   10:00   45.0    43    2.0   274      8.0   13.90      95  
 339   11:00   47.0    40    2.0   264     10.0   13.90     159  
 339   12:00   48.0    40    3.0   262     11.0   13.90     256  
 339   13:00   49.0    37    2.0   207     10.0   13.90     238  
 339   14:00   51.0    30    3.0   224     13.0   13.90     170  
 339   15:00   48.0    30    3.0   242     13.0   13.90     135  
 339   16:00   46.0    41    2.0   265     10.0   13.90      65  
 339   17:00   43.0    44    3.0   282     11.0   13.90      11  

Return to Dog Valley, California graphs page.


Western Regional Climate Center,wrcc@dri.edu